Time;durP1;ratioP1;P1;durP2;ratioP2;P2;SDS_P1;SDS_P2;PMS_P1;PMS_P2;Temp;Humidity;BMP_temperature;BMP_pressure;BME280_temperature;BME280_humidity;BME280_pressure;Samples;Min_cycle;Max_cycle;Signal;HPM_P1;HPM_P2
2024/02/07 00:01:02;;;;;;;7.00;1.50;;;8.00;99.90;;;;;;4922613;29;37269;-82
2024/02/07 00:03:29;;;;;;;5.60;1.10;;;8.00;99.90;;;;;;4939691;28;37400;-82
2024/02/07 00:05:57;;;;;;;6.00;1.20;;;7.60;99.90;;;;;;4931750;29;38261;-81
2024/02/07 00:08:23;;;;;;;5.83;0.67;;;7.20;99.90;;;;;;4924805;28;37603;-82
2024/02/07 00:10:49;;;;;;;10.57;1.20;;;7.10;99.90;;;;;;4934443;29;36754;-81
2024/02/07 00:13:22;;;;;;;5.97;1.27;;;6.90;99.90;;;;;;4930918;28;40304;-82
2024/02/07 00:15:50;;;;;;;7.87;1.80;;;6.80;99.90;;;;;;4935219;29;37944;-81
2024/02/07 00:18:17;;;;;;;8.33;0.90;;;6.60;99.90;;;;;;4938315;29;37669;-82
2024/02/07 00:20:43;;;;;;;8.87;1.40;;;6.60;99.90;;;;;;4938040;29;37336;-82
2024/02/07 00:23:10;;;;;;;9.07;1.47;;;6.60;99.90;;;;;;4931027;29;37959;-81
2024/02/07 00:25:36;;;;;;;5.63;1.07;;;6.60;99.90;;;;;;4934495;28;39850;-82
2024/02/07 00:28:10;;;;;;;6.97;0.90;;;6.60;99.90;;;;;;4929094;29;37432;-81
2024/02/07 00:30:36;;;;;;;8.70;1.40;;;6.60;99.90;;;;;;4923844;29;36161;-81
2024/02/07 00:33:16;;;;;;;12.73;1.23;;;6.50;99.90;;;;;;4927024;29;39306;-81
2024/02/07 00:35:43;;;;;;;10.37;1.23;;;6.50;99.90;;;;;;4916190;29;38732;-81
2024/02/07 00:38:09;;;;;;;9.77;1.00;;;6.50;99.90;;;;;;4933530;29;36884;-81
2024/02/07 00:40:37;;;;;;;8.40;1.40;;;6.50;99.90;;;;;;4917449;29;36734;-81
2024/02/07 00:43:03;;;;;;;14.83;1.70;;;6.50;99.90;;;;;;4929364;29;38162;-82
2024/02/07 00:45:30;;;;;;;5.87;1.47;;;6.40;99.90;;;;;;4931512;29;37493;-81
2024/02/07 00:47:56;;;;;;;9.23;1.37;;;6.40;99.90;;;;;;4922933;29;37387;-81
2024/02/07 00:50:22;;;;;;;12.80;1.60;;;6.50;99.90;;;;;;4934916;29;36277;-81
2024/02/07 00:52:48;;;;;;;7.53;1.30;;;6.40;99.90;;;;;;4934059;29;38020;-82
2024/02/07 00:55:15;;;;;;;7.67;1.70;;;6.40;99.90;;;;;;4929237;29;38670;-82
2024/02/07 00:57:57;;;;;;;4.07;1.07;;;6.40;99.90;;;;;;4930524;29;39498;-82
2024/02/07 01:00:24;;;;;;;14.13;1.87;;;6.40;99.90;;;;;;4931552;29;36476;-81
2024/02/07 01:02:51;;;;;;;11.60;1.83;;;6.40;99.90;;;;;;4936538;29;38938;-81
2024/02/07 01:05:18;;;;;;;9.40;2.17;;;6.40;99.90;;;;;;4935243;29;37471;-81
2024/02/07 01:07:44;;;;;;;10.73;2.53;;;6.40;99.90;;;;;;4933372;29;39369;-81
2024/02/07 01:10:10;;;;;;;6.23;1.33;;;6.40;99.90;;;;;;4932359;29;36626;-81
2024/02/07 01:12:38;;;;;;;12.47;1.63;;;6.40;99.90;;;;;;4935379;29;38714;-81
2024/02/07 01:15:10;;;;;;;11.50;1.47;;;6.30;99.90;;;;;;4933561;28;37520;-81
2024/02/07 01:17:40;;;;;;;10.57;1.63;;;6.20;99.90;;;;;;4933941;29;38488;-81
2024/02/07 01:20:09;;;;;;;12.70;1.77;;;6.20;99.90;;;;;;4926349;28;37423;-82
2024/02/07 01:22:37;;;;;;;8.10;0.97;;;6.20;99.90;;;;;;4929914;29;37655;-81
2024/02/07 01:25:05;;;;;;;17.23;2.10;;;6.10;99.90;;;;;;4934436;29;39262;-81
2024/02/07 01:27:31;;;;;;;9.53;1.17;;;6.10;99.90;;;;;;4928236;29;47175;-80
2024/02/07 01:29:58;;;;;;;5.30;1.27;;;6.10;99.90;;;;;;4932177;29;36866;-80
2024/02/07 01:32:24;;;;;;;11.57;1.73;;;6.10;99.90;;;;;;4933842;29;39387;-81
2024/02/07 01:34:50;;;;;;;5.43;1.10;;;6.10;99.90;;;;;;4940753;29;37284;-81
2024/02/07 01:37:16;;;;;;;7.37;1.10;;;6.10;99.90;;;;;;4937647;28;37248;-82
2024/02/07 01:39:43;;;;;;;10.43;1.47;;;6.10;99.90;;;;;;4936601;29;36527;-81
2024/02/07 01:42:09;;;;;;;6.40;1.83;;;6.10;99.90;;;;;;4937064;29;38742;-82
2024/02/07 01:44:37;;;;;;;6.40;1.27;;;5.90;99.90;;;;;;4934902;29;39238;-81
2024/02/07 01:47:13;;;;;;;11.23;1.53;;;5.90;99.90;;;;;;4934543;29;38885;-81
2024/02/07 01:49:49;;;;;;;6.53;1.30;;;5.90;99.90;;;;;;4931789;29;36511;-82
2024/02/07 01:52:25;;;;;;;12.63;1.83;;;5.90;99.90;;;;;;4932119;29;39480;-82
2024/02/07 01:54:52;;;;;;;7.93;1.57;;;5.80;99.90;;;;;;4927632;28;39009;-82
2024/02/07 01:57:19;;;;;;;7.57;1.43;;;5.90;99.90;;;;;;4933893;29;38198;-81
2024/02/07 01:59:48;;;;;;;7.13;1.63;;;5.80;99.90;;;;;;4936669;29;35725;-82
2024/02/07 02:02:14;;;;;;;9.70;2.37;;;5.70;99.90;;;;;;5462633;23;38784;-82
2024/02/07 02:04:42;;;;;;;10.77;1.40;;;5.70;99.90;;;;;;4911040;28;38420;-83
2024/02/07 02:07:08;;;;;;;13.10;1.70;;;5.70;99.90;;;;;;4925404;28;36798;-82
2024/02/07 02:09:34;;;;;;;5.63;1.33;;;5.80;99.90;;;;;;4925415;28;36018;-83
2024/02/07 02:12:01;;;;;;;10.37;1.53;;;5.80;99.90;;;;;;4924178;28;38888;-82
2024/02/07 02:14:28;;;;;;;7.80;1.20;;;5.80;99.90;;;;;;4927989;28;46605;-81
2024/02/07 02:16:55;;;;;;;9.20;1.80;;;5.90;99.90;;;;;;4922987;28;38203;-80
2024/02/07 02:19:21;;;;;;;6.47;1.50;;;5.90;99.90;;;;;;4926963;28;36286;-82
2024/02/07 02:22:12;;;;;;;4.80;1.33;;;5.80;99.90;;;;;;4925094;28;39160;-81
2024/02/07 02:25:32;;;;;;;7.03;1.57;;;5.80;99.90;;;;;;4925725;28;48274;-81
2024/02/07 02:28:24;;;;;;;14.20;1.80;;;5.80;99.90;;;;;;4882961;28;47120;-83
2024/02/07 02:30:53;;;;;;;13.23;1.73;;;5.80;99.90;;;;;;4924130;28;47203;-82
2024/02/07 02:33:26;;;;;;;9.80;1.83;;;5.80;99.90;;;;;;4925932;28;38974;-82
2024/02/07 02:35:53;;;;;;;10.30;2.85;;;5.80;99.90;;;;;;4924361;29;38877;-81
2024/02/07 02:38:23;;;;;;;4.70;1.23;;;5.80;99.90;;;;;;4928893;28;37518;-82
2024/02/07 02:40:50;;;;;;;8.90;2.67;;;5.70;99.90;;;;;;4929251;28;36501;-82
2024/02/07 02:43:16;;;;;;;5.03;1.37;;;5.70;99.90;;;;;;4935911;28;37340;-82
2024/02/07 02:45:42;;;;;;;9.93;1.70;;;5.70;99.90;;;;;;4938010;28;37272;-81
2024/02/07 02:48:08;;;;;;;6.50;1.60;;;5.70;99.90;;;;;;4936033;28;38319;-82
2024/02/07 02:50:34;;;;;;;8.50;1.70;;;5.60;99.90;;;;;;4927133;28;36504;-82
2024/02/07 02:53:01;;;;;;;5.50;1.00;;;5.60;99.90;;;;;;4937555;28;37878;-82
2024/02/07 02:55:29;;;;;;;5.90;1.20;;;5.50;99.90;;;;;;4927445;28;39372;-81
2024/02/07 02:57:58;;;;;;;6.73;1.47;;;5.50;99.90;;;;;;4928910;28;39403;-81
2024/02/07 03:00:26;;;;;;;9.50;1.70;;;5.40;99.90;;;;;;4927373;28;36963;-82
2024/02/07 03:02:56;;;;;;;8.17;1.90;;;5.20;99.90;;;;;;4928127;28;38994;-81
2024/02/07 03:10:38;;;;;;;12.93;1.43;;;5.30;99.90;;;;;;4924112;28;37682;-84
2024/02/07 03:13:04;;;;;;;6.50;1.27;;;5.30;99.90;;;;;;4917175;28;39070;-83
2024/02/07 03:15:32;;;;;;;8.30;1.37;;;5.20;99.90;;;;;;4919516;29;37172;-82
2024/02/07 03:17:58;;;;;;;9.37;1.57;;;5.20;99.90;;;;;;4922234;28;39078;-83
2024/02/07 03:20:24;;;;;;;9.37;1.40;;;5.10;99.90;;;;;;4921407;28;36598;-82
2024/02/07 03:22:51;;;;;;;4.47;1.20;;;5.10;99.90;;;;;;4925607;29;39321;-82
2024/02/07 03:25:17;;;;;;;7.53;1.40;;;5.10;99.90;;;;;;4921759;28;38898;-83
2024/02/07 03:27:50;;;;;;;6.27;1.37;;;5.00;99.90;;;;;;4924563;28;37033;-82
2024/02/07 03:30:16;;;;;;;;;;;5.10;99.90;;;;;;4924909;28;35960;-82
2024/02/07 03:32:44;;;;;;;12.03;1.40;;;5.00;99.90;;;;;;4924075;29;38157;-83
2024/02/07 03:35:11;;;;;;;9.13;1.20;;;5.00;99.90;;;;;;4923616;29;37188;-81
2024/02/07 03:37:41;;;;;;;9.80;1.50;;;5.00;99.90;;;;;;4927732;28;37050;-82
2024/02/07 03:40:13;;;;;;;4.63;0.83;;;5.00;99.90;;;;;;4927603;28;36459;-82
2024/02/07 03:42:41;;;;;;;13.75;3.05;;;5.00;99.90;;;;;;4929519;28;38372;-84
2024/02/07 03:45:09;;;;;;;10.47;1.20;;;5.10;99.90;;;;;;4929785;28;38333;-82
2024/02/07 03:47:39;;;;;;;6.77;1.37;;;5.10;99.90;;;;;;4932210;28;36687;-81
2024/02/07 03:50:15;;;;;;;9.67;1.30;;;5.20;99.90;;;;;;4929810;28;36855;-82
2024/02/07 03:52:43;;;;;;;6.17;1.23;;;5.10;99.90;;;;;;4931600;28;39239;-83
2024/02/07 03:55:10;;;;;;;9.40;1.07;;;5.10;99.90;;;;;;4930687;28;37843;-83
2024/02/07 03:57:37;;;;;;;8.73;1.17;;;5.10;99.90;;;;;;4928071;28;37538;-81
2024/02/07 04:00:08;;;;;;;9.23;1.13;;;5.10;99.90;;;;;;4931716;28;35869;-80
2024/02/07 04:02:37;;;;;;;9.10;1.47;;;5.10;99.90;;;;;;4924349;28;37903;-82
2024/02/07 04:05:04;;;;;;;7.53;2.13;;;5.10;99.90;;;;;;4934708;28;37312;-79
2024/02/07 04:07:31;;;;;;;6.93;1.43;;;5.10;99.90;;;;;;4930891;28;47258;-80
2024/02/07 04:09:57;;;;;;;13.73;1.53;;;5.10;99.90;;;;;;4929582;28;37501;-82
2024/02/07 05:17:23;;;;;;;16.43;2.70;;;5.50;99.90;;;;;;4922528;28;37062;-75
2024/02/07 05:19:50;;;;;;;13.23;1.57;;;5.50;99.90;;;;;;4919619;28;38170;-79
2024/02/07 05:22:17;;;;;;;15.37;2.93;;;5.50;99.90;;;;;;4933906;28;35888;-81
2024/02/07 05:24:47;;;;;;;10.07;1.40;;;5.50;99.90;;;;;;4927493;28;36775;-81
2024/02/07 05:27:13;;;;;;;10.43;1.30;;;5.40;99.90;;;;;;4922648;28;40001;-80
2024/02/07 05:29:40;;;;;;;9.03;1.30;;;5.50;99.90;;;;;;4927002;28;37379;-80
2024/02/07 05:32:07;;;;;;;5.73;1.63;;;5.50;99.90;;;;;;4925445;28;38401;-79
2024/02/07 05:34:34;;;;;;;11.47;2.23;;;5.50;99.90;;;;;;4925804;28;37001;-80
2024/02/07 05:37:04;;;;;;;8.27;1.50;;;5.50;99.90;;;;;;4928024;28;38555;-79
2024/02/07 05:39:35;;;;;;;8.07;1.57;;;5.60;99.90;;;;;;4925903;28;47418;-80
2024/02/07 05:42:01;;;;;;;16.47;1.67;;;5.60;99.90;;;;;;4929635;28;38129;-81
2024/02/07 05:44:28;;;;;;;10.00;1.60;;;5.60;99.90;;;;;;4928527;28;46241;-80
2024/02/07 05:46:54;;;;;;;12.07;1.77;;;5.50;99.90;;;;;;4927198;28;39518;-80
2024/02/07 05:49:21;;;;;;;12.43;1.50;;;5.50;99.90;;;;;;4930863;28;38037;-82
2024/02/07 05:51:57;;;;;;;5.53;1.70;;;5.50;99.90;;;;;;4930465;28;38007;-82
2024/02/07 05:54:27;;;;;;;7.50;1.37;;;5.50;99.90;;;;;;4930503;28;36265;-81
2024/02/07 05:56:53;;;;;;;5.40;1.13;;;5.50;99.90;;;;;;4923465;28;38104;-82
2024/02/07 05:59:20;;;;;;;11.43;1.77;;;5.60;99.90;;;;;;4924043;28;37558;-81
2024/02/07 06:01:47;;;;;;;6.40;1.47;;;5.60;99.90;;;;;;4926528;28;37128;-80
2024/02/07 06:04:14;;;;;;;7.77;1.30;;;5.60;99.90;;;;;;4931417;28;36419;-82
2024/02/07 06:06:41;;;;;;;14.40;1.70;;;5.60;99.90;;;;;;4932138;28;38722;-81
2024/02/07 06:09:08;;;;;;;6.20;1.50;;;5.70;99.90;;;;;;4930875;28;37252;-79
2024/02/07 06:11:41;;;;;;;11.60;1.90;;;5.70;99.90;;;;;;4926071;28;36878;-82
2024/02/07 06:14:16;;;;;;;6.17;1.63;;;5.70;99.90;;;;;;4927530;28;37296;-79
2024/02/07 06:16:42;;;;;;;8.97;1.80;;;5.70;99.90;;;;;;4925156;29;39250;-78
2024/02/07 06:19:09;;;;;;;6.30;2.00;;;5.70;99.90;;;;;;4919155;28;37229;-81
2024/02/07 06:21:37;;;;;;;9.17;1.43;;;5.70;99.90;;;;;;4923058;28;37325;-80
2024/02/07 06:24:03;;;;;;;12.47;1.90;;;5.70;99.90;;;;;;4913869;29;36112;-81
2024/02/07 06:26:29;;;;;;;9.50;1.60;;;5.70;99.90;;;;;;4923084;28;38841;-82
2024/02/07 06:28:55;;;;;;;7.47;1.80;;;5.70;99.90;;;;;;4922208;28;38512;-77
2024/02/07 06:31:21;;;;;;;12.63;2.43;;;5.70;99.90;;;;;;4921350;28;38043;-78
2024/02/07 06:33:47;;;;;;;11.57;2.67;;;5.60;99.90;;;;;;4922762;28;38119;-80
2024/02/07 06:36:13;;;;;;;13.83;2.90;;;5.60;99.90;;;;;;4922080;28;38078;-80
2024/02/07 06:38:39;;;;;;;17.17;2.97;;;5.60;99.90;;;;;;4924815;28;38927;-78
2024/02/07 06:41:05;;;;;;;12.57;2.97;;;5.60;99.90;;;;;;4926307;28;38462;-77
2024/02/07 06:43:32;;;;;;;12.57;2.67;;;5.60;99.90;;;;;;4930933;28;36018;-79
2024/02/07 06:46:01;;;;;;;15.30;3.77;;;5.50;99.90;;;;;;4922304;28;38776;-81
2024/02/07 06:48:28;;;;;;;8.33;2.77;;;5.50;99.90;;;;;;4918136;28;47232;-79
2024/02/07 06:50:54;;;;;;;14.83;3.00;;;5.50;99.90;;;;;;4919727;28;37024;-83
2024/02/07 06:53:20;;;;;;;10.17;3.30;;;5.50;99.90;;;;;;4919243;28;36118;-79
2024/02/07 06:55:47;;;;;;;8.40;3.03;;;5.60;99.90;;;;;;4921652;29;37384;-82
2024/02/07 06:58:13;;;;;;;12.07;3.00;;;5.70;99.90;;;;;;4921333;28;39088;-83
2024/02/07 07:00:39;;;;;;;9.37;3.10;;;5.70;99.90;;;;;;4924159;28;38054;-82
2024/02/07 07:03:05;;;;;;;12.33;3.67;;;5.70;99.90;;;;;;4927391;28;37951;-81
2024/02/07 07:05:31;;;;;;;13.53;3.50;;;5.70;99.90;;;;;;4926030;28;38074;-85
2024/02/07 07:07:58;;;;;;;10.33;3.73;;;5.70;99.90;;;;;;4924695;28;37296;-82
2024/02/07 07:10:24;;;;;;;12.77;4.60;;;5.70;99.90;;;;;;4923278;28;36948;-80
2024/02/07 07:12:50;;;;;;;11.00;3.57;;;5.70;99.90;;;;;;4926131;28;36719;-82
2024/02/07 07:15:16;;;;;;;12.47;3.57;;;5.70;99.90;;;;;;4928723;28;37589;-82
2024/02/07 07:17:42;;;;;;;14.00;3.73;;;5.70;99.90;;;;;;4937032;28;37454;-83
2024/02/07 07:20:08;;;;;;;16.47;4.23;;;5.70;99.90;;;;;;4933580;28;37050;-83
2024/02/07 07:22:35;;;;;;;9.53;3.83;;;5.60;99.90;;;;;;4935004;28;36102;-82
2024/02/07 07:25:01;;;;;;;12.10;4.30;;;5.70;99.90;;;;;;4933040;28;38557;-81
2024/02/07 07:27:27;;;;;;;16.67;4.90;;;5.70;99.90;;;;;;4927659;28;36919;-83
2024/02/07 07:29:53;;;;;;;18.40;4.93;;;5.80;99.90;;;;;;4939066;28;38402;-83
2024/02/07 07:32:19;;;;;;;14.03;5.10;;;5.80;99.90;;;;;;4923941;28;36063;-83
2024/02/07 07:34:45;;;;;;;20.53;5.10;;;5.80;99.90;;;;;;4926122;28;40571;-84
2024/02/07 07:37:14;;;;;;;14.40;5.90;;;5.80;99.90;;;;;;4925914;28;39021;-82
2024/02/07 07:39:43;;;;;;;17.33;5.17;;;5.90;99.90;;;;;;4944459;28;37022;-81
2024/02/07 07:42:11;;;;;;;20.40;5.50;;;5.90;99.90;;;;;;4928485;28;37363;-83
2024/02/07 07:44:38;;;;;;;18.90;5.23;;;5.90;99.90;;;;;;4923877;28;37940;-83
2024/02/07 07:47:04;;;;;;;16.13;5.50;;;5.90;99.90;;;;;;4924467;28;37474;-78
2024/02/07 07:49:36;;;;;;;12.30;4.90;;;5.90;99.90;;;;;;4928895;28;37807;-81
2024/02/07 07:52:03;;;;;;;13.85;5.05;;;6.00;99.90;;;;;;4926169;28;37374;-81
2024/02/07 07:54:29;;;;;;;20.97;4.50;;;5.90;99.90;;;;;;4927308;28;38749;-81
2024/02/07 07:56:57;;;;;;;14.13;4.30;;;5.90;99.90;;;;;;4929542;28;38608;-81
2024/02/07 07:59:23;;;;;;;16.23;3.73;;;5.90;99.90;;;;;;4925726;28;38160;-82
2024/02/07 08:02:00;;;;;;;16.03;3.77;;;5.90;99.90;;;;;;4921658;29;36333;-80
2024/02/07 08:04:27;;;;;;;14.90;3.73;;;5.90;99.90;;;;;;4925515;28;47610;-81
2024/02/07 08:06:55;;;;;;;19.60;3.80;;;5.90;99.90;;;;;;4925977;29;38068;-80
2024/02/07 08:09:22;;;;;;;13.90;4.00;;;6.00;99.90;;;;;;4920928;28;36894;-81
2024/02/07 08:11:48;;;;;;;18.97;3.90;;;6.00;99.90;;;;;;4925634;29;36255;-82
2024/02/07 08:14:15;;;;;;;12.03;3.53;;;6.00;99.90;;;;;;4928633;28;37654;-81
2024/02/07 08:16:43;;;;;;;14.57;3.63;;;6.10;99.90;;;;;;4927270;28;38693;-82
2024/02/07 08:19:12;;;;;;;19.80;3.27;;;6.10;99.90;;;;;;4928816;28;38052;-81
2024/02/07 08:21:39;;;;;;;19.63;3.87;;;6.10;99.90;;;;;;4921296;29;36322;-81
2024/02/07 08:24:05;;;;;;;23.37;3.47;;;6.10;99.90;;;;;;4930497;28;37611;-81
2024/02/07 08:26:31;;;;;;;21.97;3.30;;;6.20;99.90;;;;;;4926957;28;37906;-80
2024/02/07 08:28:57;;;;;;;20.80;4.00;;;6.20;99.90;;;;;;4931723;28;38468;-80
2024/02/07 08:31:24;;;;;;;17.40;3.97;;;6.20;99.90;;;;;;4926727;28;37883;-81
2024/02/07 08:33:50;;;;;;;18.63;3.17;;;6.10;99.90;;;;;;4934108;28;39025;-81
2024/02/07 08:36:16;;;;;;;19.27;4.43;;;6.20;99.90;;;;;;4930237;28;38012;-81
2024/02/07 08:38:42;;;;;;;27.53;4.83;;;6.20;99.90;;;;;;4930850;28;37540;-81
2024/02/07 08:41:08;;;;;;;28.40;4.27;;;6.20;99.90;;;;;;4926837;28;35894;-82
2024/02/07 08:43:34;;;;;;;22.47;3.73;;;6.20;99.90;;;;;;4925031;29;37511;-80
2024/02/07 08:46:00;;;;;;;21.37;3.77;;;6.10;99.90;;;;;;4933389;28;37502;-81
2024/02/07 08:48:26;;;;;;;24.00;4.23;;;6.10;99.90;;;;;;4928227;28;36819;-79
2024/02/07 08:50:52;;;;;;;23.40;3.90;;;6.20;99.90;;;;;;4932871;28;36025;-81
2024/02/07 08:53:18;;;;;;;26.47;4.07;;;6.10;99.90;;;;;;4931650;28;39512;-81
2024/02/07 08:55:44;;;;;;;20.17;3.83;;;6.10;99.90;;;;;;4927306;28;38338;-80
2024/02/07 08:58:10;;;;;;;27.57;3.77;;;6.10;99.90;;;;;;4934165;28;37064;-79
2024/02/07 09:00:38;;;;;;;29.27;4.00;;;6.20;99.90;;;;;;4930357;28;38651;-80
2024/02/07 09:03:04;;;;;;;18.13;3.77;;;6.20;99.90;;;;;;4930959;28;37769;-80
2024/02/07 09:05:30;;;;;;;18.83;3.37;;;6.20;99.90;;;;;;4929347;29;37996;-79
2024/02/07 09:07:56;;;;;;;26.10;3.67;;;6.20;99.90;;;;;;4932526;29;37366;-80
2024/02/07 09:10:23;;;;;;;37.37;6.50;;;6.30;99.90;;;;;;4930413;28;37781;-81
2024/02/07 09:12:49;;;;;;;23.93;4.20;;;6.30;99.90;;;;;;4922291;29;38165;-80
2024/02/07 09:15:15;;;;;;;27.47;4.07;;;6.30;99.90;;;;;;4925173;28;37720;-80
2024/02/07 09:17:44;;;;;;;17.33;3.00;;;6.40;99.90;;;;;;4931512;29;38846;-82
2024/02/07 09:20:12;;;;;;;19.73;3.77;;;6.50;99.90;;;;;;4930301;28;36282;-79
2024/02/07 09:22:42;;;;;;;20.33;3.40;;;6.60;99.90;;;;;;4932650;28;39668;-80
2024/02/07 09:25:08;;;;;;;23.53;3.67;;;6.70;99.90;;;;;;4931790;28;38370;-80
2024/02/07 09:27:34;;;;;;;24.37;3.70;;;6.80;99.90;;;;;;4929504;29;38772;-79
2024/02/07 09:30:00;;;;;;;23.97;4.00;;;6.90;99.90;;;;;;4929944;29;36086;-78
2024/02/07 09:32:26;;;;;;;25.20;4.43;;;7.00;99.90;;;;;;4928556;29;37714;-78
2024/02/07 09:34:52;;;;;;;19.50;3.83;;;7.20;99.90;;;;;;4921738;29;37112;-80
2024/02/07 09:37:19;;;;;;;22.43;4.37;;;7.20;99.90;;;;;;4928523;28;36990;-80
2024/02/07 09:39:45;;;;;;;26.50;5.03;;;7.10;99.90;;;;;;4930972;28;36362;-82
2024/02/07 09:42:17;;;;;;;25.67;3.60;;;7.00;99.90;;;;;;4931224;28;39098;-82
2024/02/07 09:44:45;;;;;;;;;;;7.00;99.90;;;;;;4932362;28;37307;-81
2024/02/07 09:47:17;;;;;;;20.40;2.90;;;7.10;99.90;;;;;;4931496;28;36855;-81
2024/02/07 09:49:46;;;;;;;24.38;3.10;;;7.20;99.90;;;;;;4929868;28;36759;-80
2024/02/07 09:52:14;;;;;;;24.63;4.43;;;7.10;99.90;;;;;;4923543;28;37724;-79
2024/02/07 09:54:46;;;;;;;27.10;3.50;;;7.00;99.90;;;;;;4929957;28;39121;-80
2024/02/07 09:57:14;;;;;;;22.40;3.07;;;7.00;99.90;;;;;;4919890;28;38362;-80
2024/02/07 09:59:43;;;;;;;22.47;3.13;;;7.00;99.90;;;;;;4931620;28;36431;-79
2024/02/07 10:02:18;;;;;;;22.50;3.50;;;6.90;99.90;;;;;;4945419;28;39267;-81
2024/02/07 10:04:52;;;;;;;22.10;5.20;;;6.90;99.90;;;;;;4932777;28;37507;-81
2024/02/07 10:07:19;;;;;;;23.73;3.80;;;6.90;99.90;;;;;;4930533;28;39195;-81
2024/02/07 10:09:51;;;;;;;16.13;3.63;;;6.90;99.90;;;;;;4932607;28;37182;-81
2024/02/07 10:12:17;;;;;;;22.67;3.00;;;6.80;87.50;;;;;;4926177;29;37654;-81
2024/02/07 10:14:44;;;;;;;22.87;2.80;;;6.90;92.20;;;;;;4930521;29;36994;-81
2024/02/07 10:17:12;;;;;;;22.23;3.33;;;7.00;79.00;;;;;;4923747;28;34908;-77
2024/02/07 10:19:38;;;;;;;18.43;2.60;;;7.10;88.00;;;;;;4927939;28;35734;-79
2024/02/07 10:22:17;;;;;;;24.33;3.60;;;7.10;74.40;;;;;;4946908;28;38656;-78
2024/02/07 10:24:44;;;;;;;17.23;2.83;;;7.20;85.50;;;;;;4931097;28;38456;-76
2024/02/07 10:27:17;;;;;;;22.97;3.10;;;7.20;58.50;;;;;;4931270;28;38559;-76
2024/02/07 10:29:43;;;;;;;19.37;2.83;;;7.30;45.50;;;;;;4929721;29;37492;-77
2024/02/07 10:32:17;;;;;;;20.67;3.73;;;7.40;49.80;;;;;;4932017;28;39869;-80
2024/02/07 10:34:51;;;;;;;18.80;3.47;;;7.40;41.60;;;;;;4930828;29;38155;-78
2024/02/07 10:37:18;;;;;;;20.87;2.93;;;7.50;53.50;;;;;;4934237;28;39032;-78
2024/02/07 10:39:45;;;;;;;20.13;3.13;;;7.50;21.10;;;;;;4935467;28;36030;-79
2024/02/07 10:42:11;;;;;;;15.40;2.70;;;7.40;17.20;;;;;;4931649;28;38068;-79
2024/02/07 10:44:37;;;;;;;17.17;2.87;;;7.40;16.30;;;;;;4930868;29;37619;-79
2024/02/07 10:47:06;;;;;;;20.27;2.53;;;7.40;1.00;;;;;;4921041;29;36648;-80
2024/02/07 10:49:32;;;;;;;12.67;2.87;;;7.40;10.10;;;;;;4930783;28;37261;-79
2024/02/07 10:51:58;;;;;;;14.57;2.47;;;7.50;25.10;;;;;;4932167;28;40378;-78
2024/02/07 10:54:26;;;;;;;19.63;3.00;;;7.40;18.90;;;;;;4930327;28;38202;-79
2024/02/07 10:56:56;;;;;;;10.57;2.60;;;7.40;1.00;;;;;;4931249;29;37560;-79
2024/02/07 10:59:25;;;;;;;21.83;3.57;;;7.40;19.20;;;;;;4933554;28;36607;-80
2024/02/07 11:01:52;;;;;;;21.03;3.37;;;7.50;19.00;;;;;;4935523;28;37878;-81
2024/02/07 11:04:19;;;;;;;23.73;3.93;;;7.40;8.70;;;;;;4931900;28;37148;-81
2024/02/07 11:06:47;;;;;;;21.80;2.93;;;7.30;1.00;;;;;;4932160;29;36884;-80
2024/02/07 11:09:13;;;;;;;24.23;5.03;;;7.30;1.20;;;;;;4926086;28;36919;-79
2024/02/07 11:11:40;;;;;;;16.40;2.87;;;7.30;6.60;;;;;;4928957;28;37594;-78
2024/02/07 11:14:11;;;;;;;19.30;3.27;;;7.30;1.00;;;;;;4923607;28;37634;-83
2024/02/07 11:16:37;;;;;;;16.93;3.53;;;7.30;1.00;;;;;;4924238;28;38797;-78
2024/02/07 11:19:03;;;;;;;16.70;3.47;;;7.20;1.00;;;;;;4926343;28;36841;-82
2024/02/07 11:21:34;;;;;;;21.17;3.00;;;7.30;1.00;;;;;;4928413;28;39549;-82
2024/02/07 11:24:01;;;;;;;17.23;3.33;;;7.40;10.20;;;;;;4930562;29;38144;-81
2024/02/07 11:26:28;;;;;;;24.50;3.20;;;7.40;1.00;;;;;;4930007;29;36929;-83
2024/02/07 11:28:55;;;;;;;13.47;2.63;;;7.50;3.60;;;;;;4932908;28;37280;-82
2024/02/07 11:31:23;;;;;;;18.30;2.40;;;7.50;1.00;;;;;;4931194;28;39032;-82
2024/02/07 11:33:52;;;;;;;15.40;3.00;;;7.50;1.00;;;;;;4929342;29;37349;-81
2024/02/07 11:36:20;;;;;;;26.73;3.27;;;7.60;1.00;;;;;;4928978;28;37286;-81
2024/02/07 11:38:56;;;;;;;15.73;2.50;;;7.60;1.00;;;;;;4925914;28;37110;-80
2024/02/07 11:41:22;;;;;;;14.17;2.90;;;7.60;1.00;;;;;;4925116;28;36221;-81
2024/02/07 11:43:58;;;;;;;25.47;3.20;;;7.60;1.00;;;;;;4931762;28;38156;-83
2024/02/07 11:46:24;;;;;;;16.23;2.57;;;7.60;1.00;;;;;;4925131;28;37463;-82
2024/02/07 11:48:52;;;;;;;21.13;2.63;;;7.60;1.00;;;;;;4931413;28;37077;-82
2024/02/07 11:51:21;;;;;;;18.67;2.83;;;7.80;1.00;;;;;;4928539;28;37179;-82
2024/02/07 11:53:47;;;;;;;25.20;3.60;;;7.90;1.00;;;;;;4930533;29;38529;-81
2024/02/07 11:56:20;;;;;;;20.03;3.23;;;7.90;1.00;;;;;;4933030;28;36817;-81
2024/02/07 11:58:49;;;;;;;23.20;3.70;;;7.90;1.00;;;;;;4932306;29;36247;-81
2024/02/07 12:01:16;;;;;;;23.43;3.30;;;8.00;1.00;;;;;;4942819;28;39627;-81
2024/02/07 12:03:42;;;;;;;16.60;2.83;;;8.00;1.00;;;;;;4925150;28;39309;-81
2024/02/07 12:06:10;;;;;;;15.20;2.80;;;8.10;1.00;;;;;;4929224;28;38351;-81
2024/02/07 12:08:37;;;;;;;20.33;3.47;;;8.10;1.00;;;;;;4926715;29;37556;-80
2024/02/07 12:11:08;;;;;;;16.90;3.00;;;8.10;1.00;;;;;;4931905;28;39938;-81
2024/02/07 12:13:35;;;;;;;22.20;2.90;;;8.10;1.00;;;;;;4929411;29;37208;-80
2024/02/07 12:16:04;;;;;;;27.73;3.30;;;8.10;1.00;;;;;;4922314;28;38824;-81
2024/02/07 12:18:30;;;;;;;21.13;2.70;;;8.20;1.00;;;;;;4928927;29;47269;-81
2024/02/07 12:21:03;;;;;;;20.10;3.43;;;8.20;1.00;;;;;;4927958;29;37622;-80
2024/02/07 12:23:31;;;;;;;27.83;3.40;;;8.20;1.00;;;;;;4925404;28;48203;-81
2024/02/07 12:26:01;;;;;;;12.13;3.30;;;8.30;1.00;;;;;;4930754;28;37807;-80
2024/02/07 12:28:28;;;;;;;26.00;3.53;;;8.20;1.00;;;;;;4939358;28;47430;-80
2024/02/07 12:30:59;;;;;;;24.47;3.17;;;8.10;1.00;;;;;;4943421;28;37669;-81
2024/02/07 12:33:27;;;;;;;17.23;3.17;;;8.10;1.00;;;;;;4935519;28;39066;-79
2024/02/07 12:35:59;;;;;;;12.97;2.90;;;8.10;1.00;;;;;;4941317;28;38320;-81
2024/02/07 12:38:26;;;;;;;19.23;3.03;;;8.10;1.00;;;;;;4941336;28;37108;-80
2024/02/07 12:40:55;;;;;;;15.33;3.30;;;8.10;1.00;;;;;;4938288;28;37928;-81
2024/02/07 12:43:25;;;;;;;19.57;2.67;;;8.20;1.00;;;;;;4934834;28;38006;-81
2024/02/07 12:46:00;;;;;;;26.33;3.90;;;8.20;1.00;;;;;;4935058;28;37272;-79
2024/02/07 12:48:31;;;;;;;20.03;3.17;;;8.20;1.00;;;;;;4918852;28;35555;-80
2024/02/07 12:50:58;;;;;;;24.03;4.60;;;8.40;1.00;;;;;;4917773;28;39104;-79
2024/02/07 12:53:25;;;;;;;17.63;3.13;;;8.50;1.00;;;;;;4922510;28;37619;-79
2024/02/07 12:55:53;;;;;;;29.57;3.60;;;8.50;1.00;;;;;;4918758;28;37884;-79
2024/02/07 12:58:20;;;;;;;17.53;2.83;;;8.70;1.00;;;;;;4922467;29;37138;-80
2024/02/07 13:00:46;;;;;;;22.77;3.13;;;8.70;1.00;;;;;;4928420;29;39398;-79
2024/02/07 13:03:12;;;;;;;17.83;3.73;;;8.80;1.00;;;;;;4930596;28;38808;-79
2024/02/07 13:05:39;;;;;;;23.40;3.70;;;8.70;1.00;;;;;;4922070;28;37829;-79
2024/02/07 13:08:09;;;;;;;15.67;2.67;;;8.70;1.00;;;;;;4927007;28;38681;-78
2024/02/07 13:10:38;;;;;;;22.10;3.13;;;8.90;1.00;;;;;;4930280;28;38055;-77
2024/02/07 13:13:04;;;;;;;19.60;2.90;;;9.10;1.00;;;;;;4926452;28;37316;-79
2024/02/07 13:15:30;;;;;;;21.87;3.13;;;8.80;1.00;;;;;;4928346;28;37112;-79
2024/02/07 13:17:56;;;;;;;16.37;3.53;;;8.80;1.00;;;;;;4929205;29;36352;-78
2024/02/07 13:20:22;;;;;;;18.90;3.23;;;8.70;1.00;;;;;;4925282;28;39314;-78
2024/02/07 13:22:48;;;;;;;14.10;2.70;;;8.70;1.00;;;;;;4931286;28;39492;-79
2024/02/07 13:25:14;;;;;;;15.27;2.67;;;8.60;1.00;;;;;;4924802;28;37298;-78
2024/02/07 13:27:42;;;;;;;18.57;3.97;;;8.60;1.00;;;;;;4929975;29;37925;-78
2024/02/07 13:30:09;;;;;;;21.37;3.13;;;8.70;1.00;;;;;;4929773;28;38939;-79
2024/02/07 13:32:36;;;;;;;23.10;2.83;;;8.70;1.00;;;;;;4928722;28;37962;-79
2024/02/07 13:35:02;;;;;;;16.53;2.93;;;8.60;1.00;;;;;;4930572;28;37973;-78
2024/02/07 13:37:28;;;;;;;21.90;3.60;;;8.60;1.00;;;;;;4939618;28;46954;-79
2024/02/07 13:39:55;;;;;;;15.27;2.57;;;8.70;1.00;;;;;;4925921;29;37840;-78
2024/02/07 13:42:21;;;;;;;14.93;2.70;;;8.80;1.00;;;;;;4925258;28;38537;-79
2024/02/07 13:44:48;;;;;;;17.50;3.67;;;8.70;1.00;;;;;;4928105;28;38214;-79
2024/02/07 13:47:14;;;;;;;16.30;2.67;;;8.60;1.00;;;;;;4923630;28;37466;-79
2024/02/07 13:49:40;;;;;;;15.87;2.60;;;8.60;1.00;;;;;;4929948;29;37618;-79
2024/02/07 13:52:07;;;;;;;17.03;2.53;;;8.50;1.00;;;;;;4926250;28;38484;-79
2024/02/07 13:54:34;;;;;;;18.67;3.57;;;8.50;1.00;;;;;;4923767;29;37212;-79
2024/02/07 13:57:00;;;;;;;22.83;3.83;;;8.50;1.00;;;;;;4926945;28;36094;-79
2024/02/07 13:59:26;;;;;;;20.90;2.70;;;8.50;1.00;;;;;;4922060;28;47464;-79
2024/02/07 14:01:52;;;;;;;13.87;3.50;;;8.40;1.00;;;;;;4929092;29;38832;-78
2024/02/07 14:04:20;;;;;;;20.93;3.70;;;8.40;1.00;;;;;;4928843;28;37305;-79
2024/02/07 14:06:46;;;;;;;17.80;3.73;;;8.30;1.00;;;;;;4926245;28;36229;-80